Ben Wyvis — V7KF8 — position and weather

sailwx.info

Track history (hours):
 
Tides and Currents Weather Stations Pressure Air Temp Water Temp Dewpoint Dewpoint Depression Visibility Wind Speed Wind Dir Waves Ship Positions

Ben Wyvis

Last reported at 2018-Jul-15 06:21 UTC. Time now 2018-Jul-18 08:46 UTC.
Position N 30°31' E 122°00'.

Length 179 m; draft 6.2 m.

Type: Cargo ship. MMSI: 538006155.

Date/timePositionNaut miles runAvg speedWind from/ knotsBaromVisibWave heightAir tempDewpointWater temp
2018-Jul-15 06:21N 30°31' E 122°00'410.1
2018-Jul-15 05:55N 30°31' E 121°55'4 7.9
2018-Jul-15 05:27N 30°31' E 121°51'4 9.3
2018-Jul-15 05:01N 30°30' E 121°46'7 0.2
2018-Jul-13 10:01N 30°35' E 121°52'010.6
2018-Jul-13 09:59N 30°35' E 121°52'511.3
2018-Jul-13 09:31N 30°38' E 121°47'612.4
2018-Jul-13 09:01N 30°41' E 121°40'712.0
2018-Jul-13 08:27N 30°43' E 121°33'  
2018-Jul-10 04:33N 30°38' E 121°49'115.0
2018-Jul-10 04:29N 30°38' E 121°48'814.2
2018-Jul-10 03:55N 30°41' E 121°40'  
Track history (hours):
 
Tides and Currents Weather Stations Pressure Air Temp Water Temp Dewpoint Dewpoint Depression Visibility Wind Speed Wind Dir Waves Ship Positions

Ben Wyvis

Last reported at 2018-Jul-15 06:21 UTC. Time now 2018-Jul-18 08:46 UTC.
Position N 30°31' E 122°00'.

Length 179 m; draft 6.2 m.

Type: Cargo ship. MMSI: 538006155.

Date/timePositionNaut miles runAvg speedWind from/ knotsBaromVisibWave heightAir tempDewpointWater temp
2018-Jul-15 06:21N 30°31' E 122°00'410.1
2018-Jul-15 05:55N 30°31' E 121°55'4 7.9
2018-Jul-15 05:27N 30°31' E 121°51'4 9.3
2018-Jul-15 05:01N 30°30' E 121°46'7 0.2
2018-Jul-13 10:01N 30°35' E 121°52'010.6
2018-Jul-13 09:59N 30°35' E 121°52'511.3
2018-Jul-13 09:31N 30°38' E 121°47'612.4
2018-Jul-13 09:01N 30°41' E 121°40'712.0
2018-Jul-13 08:27N 30°43' E 121°33'  
2018-Jul-10 04:33N 30°38' E 121°49'115.0
2018-Jul-10 04:29N 30°38' E 121°48'814.2
2018-Jul-10 03:55N 30°41' E 121°40'  

Dump ship's entire track history